sensor_id;sensor_type;location;lat;lon;timestamp;temperature;humidity
47618;DHT22;33336;36.728;-4.414;2022-07-12T00:03:08;27.40;83.50
47618;DHT22;33336;36.728;-4.414;2022-07-12T00:08:11;28.00;82.50
47618;DHT22;33336;36.728;-4.414;2022-07-12T00:13:15;28.00;81.80
47618;DHT22;33336;36.728;-4.414;2022-07-12T00:18:19;27.90;81.50
47618;DHT22;33336;36.728;-4.414;2022-07-12T00:23:22;27.80;81.00
47618;DHT22;33336;36.728;-4.414;2022-07-12T00:28:25;28.10;80.30
47618;DHT22;33336;36.728;-4.414;2022-07-12T00:33:29;28.10;79.60
47618;DHT22;33336;36.728;-4.414;2022-07-12T00:38:32;28.00;78.50
47618;DHT22;33336;36.728;-4.414;2022-07-12T00:43:35;27.90;78.70
47618;DHT22;33336;36.728;-4.414;2022-07-12T00:48:39;27.60;78.40
47618;DHT22;33336;36.728;-4.414;2022-07-12T00:53:43;27.30;78.70
47618;DHT22;33336;36.728;-4.414;2022-07-12T00:58:46;27.30;78.20
47618;DHT22;33336;36.728;-4.414;2022-07-12T01:03:51;27.50;77.50
47618;DHT22;33336;36.728;-4.414;2022-07-12T01:08:54;27.80;76.80
47618;DHT22;33336;36.728;-4.414;2022-07-12T01:14:00;27.60;76.50
47618;DHT22;33336;36.728;-4.414;2022-07-12T01:19:06;27.90;76.20
47618;DHT22;33336;36.728;-4.414;2022-07-12T01:24:11;27.50;75.40
47618;DHT22;33336;36.728;-4.414;2022-07-12T01:29:14;27.30;75.30
47618;DHT22;33336;36.728;-4.414;2022-07-12T01:34:17;27.40;75.00
47618;DHT22;33336;36.728;-4.414;2022-07-12T01:39:22;27.20;74.40
47618;DHT22;33336;36.728;-4.414;2022-07-12T01:44:25;26.80;74.70
47618;DHT22;33336;36.728;-4.414;2022-07-12T01:49:27;27.10;74.00
47618;DHT22;33336;36.728;-4.414;2022-07-12T01:54:33;27.10;73.70
47618;DHT22;33336;36.728;-4.414;2022-07-12T01:59:38;27.10;73.30
47618;DHT22;33336;36.728;-4.414;2022-07-12T02:04:42;27.30;73.30
47618;DHT22;33336;36.728;-4.414;2022-07-12T02:09:46;27.30;72.30
47618;DHT22;33336;36.728;-4.414;2022-07-12T02:14:49;27.30;72.20
47618;DHT22;33336;36.728;-4.414;2022-07-12T02:19:52;26.90;71.90
47618;DHT22;33336;36.728;-4.414;2022-07-12T02:24:57;27.20;71.50
47618;DHT22;33336;36.728;-4.414;2022-07-12T02:30:00;27.20;71.30
47618;DHT22;33336;36.728;-4.414;2022-07-12T02:35:04;27.20;71.10
47618;DHT22;33336;36.728;-4.414;2022-07-12T02:40:10;27.30;70.90
47618;DHT22;33336;36.728;-4.414;2022-07-12T02:45:30;27.20;71.20
47618;DHT22;33336;36.728;-4.414;2022-07-12T02:50:32;26.80;70.60
47618;DHT22;33336;36.728;-4.414;2022-07-12T02:55:37;26.60;71.10
47618;DHT22;33336;36.728;-4.414;2022-07-12T03:00:40;26.70;70.80
47618;DHT22;33336;36.728;-4.414;2022-07-12T03:05:46;26.70;71.40
47618;DHT22;33336;36.728;-4.414;2022-07-12T03:10:50;27.00;70.50
47618;DHT22;33336;36.728;-4.414;2022-07-12T03:15:54;26.40;70.50
47618;DHT22;33336;36.728;-4.414;2022-07-12T03:20:57;25.90;70.70
47618;DHT22;33336;36.728;-4.414;2022-07-12T03:26:01;26.00;71.40
47618;DHT22;33336;36.728;-4.414;2022-07-12T03:31:05;26.10;69.90
47618;DHT22;33336;36.728;-4.414;2022-07-12T03:36:07;25.90;69.70
47618;DHT22;33336;36.728;-4.414;2022-07-12T03:41:12;26.30;70.40
47618;DHT22;33336;36.728;-4.414;2022-07-12T03:46:15;26.40;68.90
47618;DHT22;33336;36.728;-4.414;2022-07-12T03:51:17;26.50;68.30
47618;DHT22;33336;36.728;-4.414;2022-07-12T03:56:22;26.60;68.40
47618;DHT22;33336;36.728;-4.414;2022-07-12T04:01:42;26.80;68.40
47618;DHT22;33336;36.728;-4.414;2022-07-12T04:06:46;25.90;68.50
47618;DHT22;33336;36.728;-4.414;2022-07-12T04:11:50;26.30;68.30
47618;DHT22;33336;36.728;-4.414;2022-07-12T04:16:53;26.30;68.00
47618;DHT22;33336;36.728;-4.414;2022-07-12T04:21:56;26.00;68.50
47618;DHT22;33336;36.728;-4.414;2022-07-12T04:27:00;26.40;67.90
47618;DHT22;33336;36.728;-4.414;2022-07-12T04:32:03;26.40;67.40
47618;DHT22;33336;36.728;-4.414;2022-07-12T04:37:06;25.90;67.70
47618;DHT22;33336;36.728;-4.414;2022-07-12T04:42:10;26.20;67.80
47618;DHT22;33336;36.728;-4.414;2022-07-12T04:47:14;25.60;67.70
47618;DHT22;33336;36.728;-4.414;2022-07-12T04:52:16;25.20;68.30
47618;DHT22;33336;36.728;-4.414;2022-07-12T04:57:21;25.40;68.70
47618;DHT22;33336;36.728;-4.414;2022-07-12T05:02:24;25.30;68.70
47618;DHT22;33336;36.728;-4.414;2022-07-12T05:07:28;25.80;68.70
47618;DHT22;33336;36.728;-4.414;2022-07-12T05:12:32;25.60;68.70
47618;DHT22;33336;36.728;-4.414;2022-07-12T05:17:37;25.50;68.70
47618;DHT22;33336;36.728;-4.414;2022-07-12T05:22:39;25.50;68.00
47618;DHT22;33336;36.728;-4.414;2022-07-12T05:27:45;25.40;68.00
47618;DHT22;33336;36.728;-4.414;2022-07-12T05:32:48;25.90;67.60
47618;DHT22;33336;36.728;-4.414;2022-07-12T05:37:52;25.60;67.80
47618;DHT22;33336;36.728;-4.414;2022-07-12T05:42:56;26.20;67.30
47618;DHT22;33336;36.728;-4.414;2022-07-12T05:48:01;26.50;66.60
47618;DHT22;33336;36.728;-4.414;2022-07-12T05:53:04;26.70;66.40
47618;DHT22;33336;36.728;-4.414;2022-07-12T05:58:27;26.80;66.60
47618;DHT22;33336;36.728;-4.414;2022-07-12T06:03:30;26.90;66.70
47618;DHT22;33336;36.728;-4.414;2022-07-12T06:08:34;26.90;66.50
47618;DHT22;33336;36.728;-4.414;2022-07-12T06:13:38;26.80;66.00
47618;DHT22;33336;36.728;-4.414;2022-07-12T06:18:42;26.70;66.30
47618;DHT22;33336;36.728;-4.414;2022-07-12T06:23:44;26.30;66.90
47618;DHT22;33336;36.728;-4.414;2022-07-12T06:28:49;26.80;66.40
47618;DHT22;33336;36.728;-4.414;2022-07-12T06:33:52;26.70;66.40
47618;DHT22;33336;36.728;-4.414;2022-07-12T06:38:56;26.30;67.00
47618;DHT22;33336;36.728;-4.414;2022-07-12T06:44:00;26.60;66.80
47618;DHT22;33336;36.728;-4.414;2022-07-12T06:49:04;26.80;66.50
47618;DHT22;33336;36.728;-4.414;2022-07-12T06:54:06;26.70;66.80
47618;DHT22;33336;36.728;-4.414;2022-07-12T06:59:11;27.20;66.10
47618;DHT22;33336;36.728;-4.414;2022-07-12T07:04:14;27.00;65.70
47618;DHT22;33336;36.728;-4.414;2022-07-12T07:09:18;27.30;66.10
47618;DHT22;33336;36.728;-4.414;2022-07-12T07:14:22;27.70;65.30
47618;DHT22;33336;36.728;-4.414;2022-07-12T07:19:26;27.70;65.40
47618;DHT22;33336;36.728;-4.414;2022-07-12T07:24:29;27.90;65.80
47618;DHT22;33336;36.728;-4.414;2022-07-12T07:29:33;28.40;64.80
47618;DHT22;33336;36.728;-4.414;2022-07-12T07:34:53;28.30;64.90
47618;DHT22;33336;36.728;-4.414;2022-07-12T07:39:57;28.30;64.60
47618;DHT22;33336;36.728;-4.414;2022-07-12T07:45:01;28.60;65.40
47618;DHT22;33336;36.728;-4.414;2022-07-12T07:50:05;28.40;66.70
47618;DHT22;33336;36.728;-4.414;2022-07-12T07:55:08;28.70;66.90
47618;DHT22;33336;36.728;-4.414;2022-07-12T08:00:14;29.40;66.80
47618;DHT22;33336;36.728;-4.414;2022-07-12T08:05:17;29.50;67.50
47618;DHT22;33336;36.728;-4.414;2022-07-12T08:10:21;29.20;66.90
47618;DHT22;33336;36.728;-4.414;2022-07-12T08:15:25;29.50;66.90
47618;DHT22;33336;36.728;-4.414;2022-07-12T08:20:29;29.10;66.70
47618;DHT22;33336;36.728;-4.414;2022-07-12T08:25:31;29.00;66.90
47618;DHT22;33336;36.728;-4.414;2022-07-12T08:30:36;29.50;66.30
47618;DHT22;33336;36.728;-4.414;2022-07-12T08:35:39;29.70;66.10
47618;DHT22;33336;36.728;-4.414;2022-07-12T08:40:42;30.20;65.90
47618;DHT22;33336;36.728;-4.414;2022-07-12T08:45:46;29.90;65.90
47618;DHT22;33336;36.728;-4.414;2022-07-12T08:51:00;30.20;65.60
47618;DHT22;33336;36.728;-4.414;2022-07-12T08:56:05;29.80;66.00
47618;DHT22;33336;36.728;-4.414;2022-07-12T09:01:10;30.50;65.80
47618;DHT22;33336;36.728;-4.414;2022-07-12T09:06:16;30.00;77.50
47618;DHT22;33336;36.728;-4.414;2022-07-12T09:11:19;28.70;81.60
47618;DHT22;33336;36.728;-4.414;2022-07-12T09:16:24;28.30;82.40
47618;DHT22;33336;36.728;-4.414;2022-07-12T09:21:28;28.70;81.50
47618;DHT22;33336;36.728;-4.414;2022-07-12T09:26:33;28.50;81.30
47618;DHT22;33336;36.728;-4.414;2022-07-12T09:31:41;28.10;83.10
47618;DHT22;33336;36.728;-4.414;2022-07-12T09:37:04;28.20;83.70
47618;DHT22;33336;36.728;-4.414;2022-07-12T09:42:08;28.40;84.40
47618;DHT22;33336;36.728;-4.414;2022-07-12T09:47:14;28.10;86.20
47618;DHT22;33336;36.728;-4.414;2022-07-12T09:52:21;28.00;87.70
47618;DHT22;33336;36.728;-4.414;2022-07-12T09:57:26;27.90;89.10
47618;DHT22;33336;36.728;-4.414;2022-07-12T10:02:32;28.00;89.70
47618;DHT22;33336;36.728;-4.414;2022-07-12T10:07:37;28.00;90.40
47618;DHT22;33336;36.728;-4.414;2022-07-12T10:12:41;27.30;92.00
47618;DHT22;33336;36.728;-4.414;2022-07-12T10:17:52;27.30;91.90
47618;DHT22;33336;36.728;-4.414;2022-07-12T10:23:34;26.60;93.30
47618;DHT22;33336;36.728;-4.414;2022-07-12T10:28:59;26.90;93.00
47618;DHT22;33336;36.728;-4.414;2022-07-12T10:34:12;27.00;92.60
47618;DHT22;33336;36.728;-4.414;2022-07-12T10:39:15;27.60;91.80
47618;DHT22;33336;36.728;-4.414;2022-07-12T10:44:33;27.80;91.30
47618;DHT22;33336;36.728;-4.414;2022-07-12T10:49:40;27.60;91.60
47618;DHT22;33336;36.728;-4.414;2022-07-12T10:55:16;27.30;91.80
47618;DHT22;33336;36.728;-4.414;2022-07-12T11:00:19;27.50;91.70
47618;DHT22;33336;36.728;-4.414;2022-07-12T11:05:27;27.70;91.40
47618;DHT22;33336;36.728;-4.414;2022-07-12T11:10:30;27.70;91.30
47618;DHT22;33336;36.728;-4.414;2022-07-12T11:15:34;27.90;91.40
47618;DHT22;33336;36.728;-4.414;2022-07-12T11:20:38;27.90;91.20
47618;DHT22;33336;36.728;-4.414;2022-07-12T11:25:41;27.90;91.50
47618;DHT22;33336;36.728;-4.414;2022-07-12T11:30:48;28.10;91.90
47618;DHT22;33336;36.728;-4.414;2022-07-12T11:35:54;28.30;91.50
47618;DHT22;33336;36.728;-4.414;2022-07-12T11:40:58;28.80;91.10
47618;DHT22;33336;36.728;-4.414;2022-07-12T11:46:03;28.50;90.80
47618;DHT22;33336;36.728;-4.414;2022-07-12T11:51:08;29.10;90.30
47618;DHT22;33336;36.728;-4.414;2022-07-12T11:56:12;29.50;89.20
47618;DHT22;33336;36.728;-4.414;2022-07-12T12:01:14;29.70;88.90
47618;DHT22;33336;36.728;-4.414;2022-07-12T12:06:19;30.10;87.80
47618;DHT22;33336;36.728;-4.414;2022-07-12T12:11:27;30.10;88.00
47618;DHT22;33336;36.728;-4.414;2022-07-12T12:16:33;29.80;87.50
47618;DHT22;33336;36.728;-4.414;2022-07-12T12:21:37;29.80;86.40
47618;DHT22;33336;36.728;-4.414;2022-07-12T12:26:41;29.30;89.10
47618;DHT22;33336;36.728;-4.414;2022-07-12T12:31:56;29.50;87.50
47618;DHT22;33336;36.728;-4.414;2022-07-12T12:37:05;29.50;88.30
47618;DHT22;33336;36.728;-4.414;2022-07-12T12:42:07;30.00;86.00
47618;DHT22;33336;36.728;-4.414;2022-07-12T12:47:13;31.00;84.10
47618;DHT22;33336;36.728;-4.414;2022-07-12T12:52:47;30.80;84.50
47618;DHT22;33336;36.728;-4.414;2022-07-12T12:57:51;31.70;82.90
47618;DHT22;33336;36.728;-4.414;2022-07-12T13:02:54;31.90;81.80
47618;DHT22;33336;36.728;-4.414;2022-07-12T13:08:03;32.50;81.50
47618;DHT22;33336;36.728;-4.414;2022-07-12T13:13:07;32.40;80.80
47618;DHT22;33336;36.728;-4.414;2022-07-12T13:18:10;31.80;81.50
47618;DHT22;33336;36.728;-4.414;2022-07-12T13:23:15;31.60;82.20
47618;DHT22;33336;36.728;-4.414;2022-07-12T13:28:18;31.90;82.30
47618;DHT22;33336;36.728;-4.414;2022-07-12T13:33:21;32.70;80.00
47618;DHT22;33336;36.728;-4.414;2022-07-12T13:38:26;32.80;79.70
47618;DHT22;33336;36.728;-4.414;2022-07-12T13:43:29;32.40;80.80
47618;DHT22;33336;36.728;-4.414;2022-07-12T13:48:32;33.00;80.50
47618;DHT22;33336;36.728;-4.414;2022-07-12T13:53:36;33.60;79.60
47618;DHT22;33336;36.728;-4.414;2022-07-12T13:58:39;33.90;78.10
47618;DHT22;33336;36.728;-4.414;2022-07-12T14:03:43;34.00;78.00
47618;DHT22;33336;36.728;-4.414;2022-07-12T14:08:48;33.10;79.30
47618;DHT22;33336;36.728;-4.414;2022-07-12T14:13:51;32.80;80.00
47618;DHT22;33336;36.728;-4.414;2022-07-12T14:18:54;32.50;81.10
47618;DHT22;33336;36.728;-4.414;2022-07-12T14:23:59;33.20;80.10
47618;DHT22;33336;36.728;-4.414;2022-07-12T14:29:02;33.60;79.30
47618;DHT22;33336;36.728;-4.414;2022-07-12T14:34:06;33.50;77.90
47618;DHT22;33336;36.728;-4.414;2022-07-12T14:39:11;33.30;79.20
47618;DHT22;33336;36.728;-4.414;2022-07-12T14:44:14;33.50;80.00
47618;DHT22;33336;36.728;-4.414;2022-07-12T14:49:17;34.60;77.60
47618;DHT22;33336;36.728;-4.414;2022-07-12T14:54:22;34.30;76.60
47618;DHT22;33336;36.728;-4.414;2022-07-12T14:59:26;34.50;77.90
47618;DHT22;33336;36.728;-4.414;2022-07-12T15:04:28;35.90;75.90
47618;DHT22;33336;36.728;-4.414;2022-07-12T15:09:33;35.40;75.00
47618;DHT22;33336;36.728;-4.414;2022-07-12T15:14:36;35.90;75.40
47618;DHT22;33336;36.728;-4.414;2022-07-12T15:19:39;36.10;74.30
47618;DHT22;33336;36.728;-4.414;2022-07-12T15:24:44;36.10;74.20
47618;DHT22;33336;36.728;-4.414;2022-07-12T15:29:47;36.70;73.80
47618;DHT22;33336;36.728;-4.414;2022-07-12T15:34:50;36.90;72.60
47618;DHT22;33336;36.728;-4.414;2022-07-12T15:39:55;36.10;73.10
47618;DHT22;33336;36.728;-4.414;2022-07-12T15:44:58;36.70;72.20
47618;DHT22;33336;36.728;-4.414;2022-07-12T15:50:02;37.10;71.50
47618;DHT22;33336;36.728;-4.414;2022-07-12T15:55:08;36.80;72.80
47618;DHT22;33336;36.728;-4.414;2022-07-12T16:00:11;36.20;72.40
47618;DHT22;33336;36.728;-4.414;2022-07-12T16:05:15;36.10;72.30
47618;DHT22;33336;36.728;-4.414;2022-07-12T16:10:20;36.20;71.70
47618;DHT22;33336;36.728;-4.414;2022-07-12T16:15:23;37.00;71.40
47618;DHT22;33336;36.728;-4.414;2022-07-12T16:20:26;37.80;70.00
47618;DHT22;33336;36.728;-4.414;2022-07-12T16:25:31;38.20;70.40
47618;DHT22;33336;36.728;-4.414;2022-07-12T16:30:34;37.90;68.70
47618;DHT22;33336;36.728;-4.414;2022-07-12T16:35:38;37.80;68.80
47618;DHT22;33336;36.728;-4.414;2022-07-12T16:40:42;37.80;69.10
47618;DHT22;33336;36.728;-4.414;2022-07-12T16:45:45;38.10;69.70
47618;DHT22;33336;36.728;-4.414;2022-07-12T16:50:48;37.30;69.40
47618;DHT22;33336;36.728;-4.414;2022-07-12T16:56:13;38.40;69.10
47618;DHT22;33336;36.728;-4.414;2022-07-12T17:01:20;37.70;70.30
47618;DHT22;33336;36.728;-4.414;2022-07-12T17:06:23;38.50;68.70
47618;DHT22;33336;36.728;-4.414;2022-07-12T17:11:29;37.90;68.70
47618;DHT22;33336;36.728;-4.414;2022-07-12T17:16:32;37.10;69.60
47618;DHT22;33336;36.728;-4.414;2022-07-12T17:21:35;36.80;69.90
47618;DHT22;33336;36.728;-4.414;2022-07-12T17:26:40;38.10;69.30
47618;DHT22;33336;36.728;-4.414;2022-07-12T17:31:43;37.60;69.00
47618;DHT22;33336;36.728;-4.414;2022-07-12T17:36:46;37.60;68.30
47618;DHT22;33336;36.728;-4.414;2022-07-12T17:41:50;37.10;69.40
47618;DHT22;33336;36.728;-4.414;2022-07-12T17:46:53;36.30;70.70
47618;DHT22;33336;36.728;-4.414;2022-07-12T17:51:56;35.20;73.40
47618;DHT22;33336;36.728;-4.414;2022-07-12T17:57:00;35.80;72.10
47618;DHT22;33336;36.728;-4.414;2022-07-12T18:02:03;36.40;71.00
47618;DHT22;33336;36.728;-4.414;2022-07-12T18:07:08;36.30;70.20
47618;DHT22;33336;36.728;-4.414;2022-07-12T18:12:13;35.60;72.00
47618;DHT22;33336;36.728;-4.414;2022-07-12T18:17:33;34.90;72.80
47618;DHT22;33336;36.728;-4.414;2022-07-12T18:22:54;35.20;73.20
47618;DHT22;33336;36.728;-4.414;2022-07-12T18:27:59;34.40;75.20
47618;DHT22;33336;36.728;-4.414;2022-07-12T18:33:03;34.40;75.30
47618;DHT22;33336;36.728;-4.414;2022-07-12T18:38:06;34.40;75.80
47618;DHT22;33336;36.728;-4.414;2022-07-12T18:43:11;33.40;76.70
47618;DHT22;33336;36.728;-4.414;2022-07-12T18:48:14;32.90;76.80
47618;DHT22;33336;36.728;-4.414;2022-07-12T18:53:17;33.40;77.30
47618;DHT22;33336;36.728;-4.414;2022-07-12T18:58:21;33.10;78.30
47618;DHT22;33336;36.728;-4.414;2022-07-12T19:03:24;33.10;77.00
47618;DHT22;33336;36.728;-4.414;2022-07-12T19:08:27;32.70;77.20
47618;DHT22;33336;36.728;-4.414;2022-07-12T19:13:32;32.60;78.00
47618;DHT22;33336;36.728;-4.414;2022-07-12T19:18:35;33.20;75.90
47618;DHT22;33336;36.728;-4.414;2022-07-12T19:23:38;30.80;80.30
47618;DHT22;33336;36.728;-4.414;2022-07-12T19:28:42;30.30;83.30
47618;DHT22;33336;36.728;-4.414;2022-07-12T19:33:45;30.10;83.50
47618;DHT22;33336;36.728;-4.414;2022-07-12T19:38:48;29.70;83.60
47618;DHT22;33336;36.728;-4.414;2022-07-12T19:43:53;29.40;84.50
47618;DHT22;33336;36.728;-4.414;2022-07-12T19:48:55;29.50;82.80
47618;DHT22;33336;36.728;-4.414;2022-07-12T19:53:59;29.00;85.50
47618;DHT22;33336;36.728;-4.414;2022-07-12T19:59:04;28.80;86.00
47618;DHT22;33336;36.728;-4.414;2022-07-12T20:04:07;28.30;89.10
47618;DHT22;33336;36.728;-4.414;2022-07-12T20:09:10;27.80;90.10
47618;DHT22;33336;36.728;-4.414;2022-07-12T20:14:14;27.70;90.70
47618;DHT22;33336;36.728;-4.414;2022-07-12T20:19:18;27.70;90.40
47618;DHT22;33336;36.728;-4.414;2022-07-12T20:24:21;27.50;90.90
47618;DHT22;33336;36.728;-4.414;2022-07-12T20:29:26;27.30;91.30
47618;DHT22;33336;36.728;-4.414;2022-07-12T20:34:29;27.50;90.50
47618;DHT22;33336;36.728;-4.414;2022-07-12T20:39:35;27.40;90.50
47618;DHT22;33336;36.728;-4.414;2022-07-12T20:44:39;27.40;90.80
47618;DHT22;33336;36.728;-4.414;2022-07-12T20:49:42;28.10;90.00
47618;DHT22;33336;36.728;-4.414;2022-07-12T20:54:46;28.00;90.50
47618;DHT22;33336;36.728;-4.414;2022-07-12T20:59:51;28.00;90.60
47618;DHT22;33336;36.728;-4.414;2022-07-12T21:04:53;28.50;89.40
47618;DHT22;33336;36.728;-4.414;2022-07-12T21:09:56;28.30;89.70
47618;DHT22;33336;36.728;-4.414;2022-07-12T21:15:01;28.60;88.90
47618;DHT22;33336;36.728;-4.414;2022-07-12T21:20:06;28.40;89.50
47618;DHT22;33336;36.728;-4.414;2022-07-12T21:25:09;28.40;90.10
47618;DHT22;33336;36.728;-4.414;2022-07-12T21:30:15;28.30;90.40
47618;DHT22;33336;36.728;-4.414;2022-07-12T21:35:17;28.30;90.40
47618;DHT22;33336;36.728;-4.414;2022-07-12T21:40:20;28.30;90.60
47618;DHT22;33336;36.728;-4.414;2022-07-12T21:45:25;28.80;90.30
47618;DHT22;33336;36.728;-4.414;2022-07-12T21:50:28;29.00;90.10
47618;DHT22;33336;36.728;-4.414;2022-07-12T21:55:31;29.00;89.90
47618;DHT22;33336;36.728;-4.414;2022-07-12T22:00:40;29.10;90.00
47618;DHT22;33336;36.728;-4.414;2022-07-12T22:05:45;29.00;90.00
47618;DHT22;33336;36.728;-4.414;2022-07-12T22:10:48;29.20;90.00
47618;DHT22;33336;36.728;-4.414;2022-07-12T22:15:55;29.20;89.50
47618;DHT22;33336;36.728;-4.414;2022-07-12T22:20:58;29.40;88.90
47618;DHT22;33336;36.728;-4.414;2022-07-12T22:26:00;29.50;88.90
47618;DHT22;33336;36.728;-4.414;2022-07-12T22:31:05;29.40;89.30
47618;DHT22;33336;36.728;-4.414;2022-07-12T22:36:08;29.50;89.30
47618;DHT22;33336;36.728;-4.414;2022-07-12T22:41:11;29.30;89.10
47618;DHT22;33336;36.728;-4.414;2022-07-12T22:46:16;29.60;88.60
47618;DHT22;33336;36.728;-4.414;2022-07-12T22:51:19;29.40;89.00
47618;DHT22;33336;36.728;-4.414;2022-07-12T22:56:40;29.30;89.10
47618;DHT22;33336;36.728;-4.414;2022-07-12T23:01:45;29.20;89.10
47618;DHT22;33336;36.728;-4.414;2022-07-12T23:06:48;28.80;88.70
47618;DHT22;33336;36.728;-4.414;2022-07-12T23:11:51;28.80;87.60
47618;DHT22;33336;36.728;-4.414;2022-07-12T23:16:56;28.80;85.70
47618;DHT22;33336;36.728;-4.414;2022-07-12T23:21:59;28.40;84.70
47618;DHT22;33336;36.728;-4.414;2022-07-12T23:27:02;28.40;83.10
47618;DHT22;33336;36.728;-4.414;2022-07-12T23:32:07;28.40;83.60
47618;DHT22;33336;36.728;-4.414;2022-07-12T23:37:10;28.70;83.90
47618;DHT22;33336;36.728;-4.414;2022-07-12T23:42:15;28.50;84.00
47618;DHT22;33336;36.728;-4.414;2022-07-12T23:47:20;28.50;83.60
47618;DHT22;33336;36.728;-4.414;2022-07-12T23:52:23;28.50;83.30
47618;DHT22;33336;36.728;-4.414;2022-07-12T23:57:26;28.60;83.70
